Time;durP1;ratioP1;P1;durP2;ratioP2;P2;SDS_P1;SDS_P2;PMS_P1;PMS_P2;Temp;Humidity;BMP_temperature;BMP_pressure;BME280_temperature;BME280_humidity;BME280_pressure;Samples;Min_cycle;Max_cycle;Signal;HPM_P1;HPM_P2
2022/05/18 00:03:36;;;;;;;13.68;6.05;;;;;;;21.41;100.00;99669.44;3760636;26;10000767;-69
2022/05/18 00:06:04;;;;;;;13.55;6.00;;;;;;;21.28;100.00;99623.00;5028980;28;20033;-69
2022/05/18 00:08:37;;;;;;;6.63;5.10;;;;;;;21.30;100.00;99620.28;5014428;28;20412;-69
2022/05/18 00:11:07;;;;;;;7.82;5.10;;;;;;;21.34;100.00;99632.84;5020721;28;20034;-70
2022/05/18 00:13:32;;;;;;;7.13;5.70;;;;;;;21.47;100.00;99620.59;5011461;28;20030;-70
2022/05/18 00:15:58;;;;;;;10.13;5.05;;;;;;;21.61;100.00;99660.13;5011192;28;20088;-70
2022/05/18 00:18:23;;;;;;;13.98;5.57;;;;;;;21.69;100.00;99662.91;5010860;28;20482;-70
2022/05/18 00:20:49;;;;;;;8.82;5.20;;;;;;;21.62;100.00;99677.28;5009836;28;20040;-70
2022/05/18 00:23:14;;;;;;;13.93;5.63;;;;;;;21.42;100.00;99630.50;5011593;28;20034;-69
2022/05/18 00:25:41;;;;;;;21.80;5.68;;;;;;;21.59;100.00;99670.56;5010607;28;20096;-70
2022/05/18 00:28:07;;;;;;;15.70;5.35;;;;;;;21.70;100.00;99673.16;5011190;28;20026;-69
2022/05/18 00:30:33;;;;;;;33.67;6.90;;;;;;;21.18;100.00;99590.19;5009758;28;20034;-69
2022/05/18 00:33:05;;;;;;;18.85;6.10;;;;;;;21.47;100.00;99636.13;5010540;28;20048;-69
2022/05/18 00:35:33;;;;;;;13.10;5.13;;;;;;;21.77;100.00;99718.31;5010955;28;20033;-70
2022/05/18 00:37:58;;;;;;;11.70;5.07;;;;;;;21.65;100.00;99693.38;5008975;28;20034;-69
2022/05/18 00:40:24;;;;;;;11.68;5.13;;;;;;;21.54;100.00;99733.03;5009518;28;20034;-69
2022/05/18 00:42:49;;;;;;;13.10;5.20;;;;;;;21.21;100.00;99725.28;5010714;28;20492;-69
2022/05/18 00:45:15;;;;;;;12.50;5.53;;;;;;;20.92;100.00;99692.97;5010701;28;20642;-69
2022/05/18 00:47:41;;;;;;;10.68;5.40;;;;;;;20.94;100.00;99716.94;5009294;28;20036;-69
2022/05/18 00:50:22;;;;;;;9.52;5.50;;;;;;;21.10;100.00;99739.94;5009492;28;20034;-69
2022/05/18 00:53:00;;;;;;;6.18;5.57;;;;;;;20.40;100.00;99682.28;5011039;28;20084;-70
2022/05/18 00:55:30;;;;;;;7.72;5.60;;;;;;;20.37;100.00;99713.47;5010693;28;20072;-69
2022/05/18 00:58:01;;;;;;;8.85;5.03;;;;;;;20.29;100.00;99670.16;5009285;28;20034;-69
2022/05/18 01:00:27;;;;;;;11.45;5.38;;;;;;;20.64;100.00;99708.88;5010651;28;20428;-69
2022/05/18 01:03:00;;;;;;;5.60;4.78;;;;;;;19.86;100.00;99594.13;5009984;28;20054;-69
2022/05/18 01:05:29;;;;;;;6.32;4.45;;;;;;;20.30;100.00;99689.06;5010856;28;20030;-69
2022/05/18 01:07:58;;;;;;;5.30;3.90;;;;;;;20.30;100.00;99656.28;5022580;28;20034;-69
2022/05/18 01:10:24;;;;;;;5.10;3.70;;;;;;;19.78;100.00;99594.69;5021871;28;20079;-69
2022/05/18 01:12:49;;;;;;;11.55;3.25;;;;;;;19.96;100.00;99620.94;5022848;28;20072;-69
2022/05/18 01:15:17;;;;;;;8.35;3.58;;;;;;;20.16;100.00;99671.94;5021870;28;20033;-69
2022/05/18 01:17:46;;;;;;;4.10;3.38;;;;;;;19.85;100.00;99603.63;5023154;28;20018;-69
2022/05/18 01:20:21;;;;;;;4.38;2.90;;;;;;;19.66;100.00;99605.91;5023389;28;20029;-69
2022/05/18 01:23:17;;;;;;;6.45;3.13;;;;;;;19.90;100.00;99662.66;5024489;28;20043;-67
2022/05/18 01:25:57;;;;;;;7.65;3.28;;;;;;;19.63;100.00;99611.25;5024095;28;20025;-69
2022/05/18 01:28:25;;;;;;;7.70;3.80;;;;;;;19.87;100.00;99648.22;5022897;28;20411;-68
2022/05/18 01:30:51;;;;;;;4.95;3.90;;;;;;;19.62;100.00;99632.00;5023705;28;20021;-68
2022/05/18 01:33:19;;;;;;;5.15;3.55;;;;;;;19.01;100.00;99581.28;5023971;28;20044;-69
2022/05/18 01:35:47;;;;;;;5.18;3.70;;;;;;;19.26;100.00;99606.16;5023931;28;20049;-68
2022/05/18 01:38:13;;;;;;;4.63;3.50;;;;;;;19.27;100.00;99556.28;5025639;28;20056;-69
2022/05/18 01:40:48;;;;;;;4.78;3.17;;;;;;;19.30;100.00;99530.28;5032901;28;20517;-68
2022/05/18 01:43:42;;;;;;;4.32;3.13;;;;;;;19.72;100.00;99591.72;5021867;28;20025;-69
2022/05/18 01:46:15;;;;;;;3.45;2.75;;;;;;;19.87;100.00;99588.03;5024562;28;20030;-69
2022/05/18 01:48:45;;;;;;;3.92;3.40;;;;;;;19.87;100.00;99577.72;5024288;28;20034;-69
2022/05/18 01:51:13;;;;;;;3.47;2.60;;;;;;;19.88;100.00;99563.88;5021248;28;20168;-69
2022/05/18 01:53:38;;;;;;;4.50;3.08;;;;;;;19.80;100.00;99530.91;5021942;28;20025;-69
2022/05/18 01:56:04;;;;;;;3.17;2.88;;;;;;;19.47;100.00;99471.44;5022840;28;20455;-70
2022/05/18 01:58:30;;;;;;;3.08;2.58;;;;;;;19.87;100.00;99533.84;5020947;28;20108;-69
2022/05/18 02:00:56;;;;;;;2.60;2.40;;;;;;;20.24;100.00;99552.66;5021136;28;20539;-69
2022/05/18 02:03:23;;;;;;;3.45;2.50;;;;;;;19.96;100.00;99509.97;5022013;28;20045;-69
2022/05/18 02:05:50;;;;;;;3.25;2.90;;;;;;;19.81;100.00;99485.28;5022871;28;20030;-69
2022/05/18 02:08:15;;;;;;;3.42;2.60;;;;;;;19.87;100.00;99490.81;5021613;28;20021;-69
2022/05/18 02:10:42;;;;;;;2.42;2.22;;;;;;;20.37;100.00;99556.78;5022553;28;20516;-69
2022/05/18 02:13:08;;;;;;;4.35;2.55;;;;;;;20.31;100.00;99528.84;5020810;28;20506;-68
2022/05/18 02:15:34;;;;;;;3.42;2.30;;;;;;;20.56;100.00;99549.28;5020217;28;20030;-68
2022/05/18 02:18:00;;;;;;;3.83;2.35;;;;;;;20.41;100.00;99547.88;5019924;28;20040;-68
2022/05/18 02:20:26;;;;;;;3.50;2.40;;;;;;;20.46;100.00;99539.78;5021527;28;20030;-69
2022/05/18 02:22:51;;;;;;;2.50;2.30;;;;;;;20.42;100.00;99548.69;5021709;28;20406;-68
2022/05/18 02:25:18;;;;;;;2.50;2.20;;;;;;;20.28;100.00;99508.38;5021740;28;20107;-68
2022/05/18 02:27:43;;;;;;;2.53;2.20;;;;;;;20.43;100.00;99537.41;5020882;28;20080;-68
2022/05/18 02:30:10;;;;;;;3.90;1.95;;;;;;;20.11;100.00;99533.78;5020460;28;20026;-68
2022/05/18 02:32:35;;;;;;;4.03;2.83;;;;;;;19.73;100.00;99564.97;5023577;28;20051;-68
2022/05/18 02:35:01;;;;;;;3.30;2.58;;;;;;;19.97;100.00;99601.91;5025540;28;20116;-69
2022/05/18 02:37:26;;;;;;;2.70;2.50;;;;;;;19.93;100.00;99600.50;5021571;28;20029;-69
2022/05/18 02:39:52;;;;;;;4.68;2.92;;;;;;;19.98;100.00;99605.31;5024263;28;20475;-69
2022/05/18 02:42:18;;;;;;;3.95;2.60;;;;;;;19.97;100.00;99598.50;5021133;28;20036;-69
2022/05/18 02:44:43;;;;;;;3.15;2.85;;;;;;;19.50;100.00;99552.91;5020547;28;20087;-69
2022/05/18 02:47:09;;;;;;;4.05;3.05;;;;;;;19.52;100.00;99561.38;5026789;28;20033;-69
2022/05/18 02:49:34;;;;;;;3.13;2.33;;;;;;;19.70;100.00;99552.31;5022336;28;20036;-69
2022/05/18 02:51:59;;;;;;;4.78;2.30;;;;;;;20.29;100.00;99615.91;5020655;28;20557;-69
2022/05/18 02:57:10;;;;;;;2.55;2.35;;;;;;;20.08;100.00;99617.47;5024871;28;20101;-69
2022/05/18 02:59:36;;;;;;;3.55;2.10;;;;;;;20.31;100.00;99639.03;5019184;28;20072;-69
2022/05/18 03:02:03;;;;;;;2.60;2.10;;;;;;;19.90;100.00;99616.22;5025275;28;20439;-69
2022/05/18 03:04:32;;;;;;;2.53;2.25;;;;;;;20.05;100.00;99609.94;5022414;28;20043;-69
2022/05/18 03:06:59;;;;;;;2.42;2.20;;;;;;;19.66;100.00;99611.06;5020009;28;20026;-69
2022/05/18 03:09:24;;;;;;;3.17;2.28;;;;;;;19.83;100.00;99654.53;5028964;28;20037;-68
2022/05/18 03:11:50;;;;;;;5.70;2.65;;;;;;;19.74;100.00;99618.25;5026959;28;20029;-69
2022/05/18 03:14:16;;;;;;;2.45;2.10;;;;;;;19.64;100.00;99661.09;5022326;28;20060;-68
2022/05/18 03:16:43;;;;;;;2.40;2.10;;;;;;;19.55;100.00;99630.81;5025204;28;20061;-68
2022/05/18 03:19:10;;;;;;;6.95;2.60;;;;;;;19.25;100.00;99600.22;5018797;28;20072;-68
2022/05/18 03:24:19;;;;;;;2.95;2.53;;;;;;;18.61;100.00;99596.06;5021428;28;20052;-68
2022/05/18 03:26:45;;;;;;;3.67;2.60;;;;;;;18.80;100.00;99660.84;5025344;28;20492;-68
2022/05/18 03:29:10;;;;;;;8.68;2.90;;;;;;;18.75;100.00;99642.31;5021149;28;20186;-67
2022/05/18 03:31:35;;;;;;;3.38;2.90;;;;;;;18.77;100.00;99658.50;5019841;28;20029;-67
2022/05/18 03:34:01;;;;;;;3.20;2.83;;;;;;;18.52;100.00;99614.66;5019906;28;20025;-67
2022/05/18 03:36:27;;;;;;;6.63;3.40;;;;;;;18.71;100.00;99687.22;5020570;28;20029;-69
2022/05/18 03:38:53;;;;;;;4.38;3.45;;;;;;;17.74;100.00;99594.91;5023651;28;20100;-67
2022/05/18 03:41:18;;;;;;;4.28;3.70;;;;;;;17.88;100.00;99612.88;5020035;28;20061;-67
2022/05/18 03:43:45;;;;;;;6.15;4.00;;;;;;;18.10;100.00;99668.94;5018844;28;20029;-68
2022/05/18 03:46:11;;;;;;;8.02;4.90;;;;;;;18.20;100.00;99675.13;5021079;28;20084;-68
2022/05/18 03:48:37;;;;;;;6.90;5.00;;;;;;;18.12;100.00;99660.16;5018335;28;20084;-68
2022/05/18 03:51:06;;;;;;;6.88;4.97;;;;;;;18.10;100.00;99625.97;5024799;28;20499;-69
2022/05/18 03:53:34;;;;;;;6.40;5.28;;;;;;;18.10;100.00;99638.06;5025260;28;20521;-68
2022/05/18 03:56:00;;;;;;;9.27;5.60;;;;;;;18.33;100.00;99670.84;5027335;28;20174;-68
2022/05/18 03:58:26;;;;;;;5.50;4.95;;;;;;;18.51;100.00;99681.72;5027160;28;20120;-68
2022/05/18 04:00:53;;;;;;;6.45;4.78;;;;;;;18.34;100.00;99649.34;5027891;28;20499;-67
2022/05/18 04:03:23;;;;;;;6.25;5.65;;;;;;;18.77;100.00;99707.44;5020209;28;20044;-68
2022/05/18 04:05:50;;;;;;;6.05;5.45;;;;;;;18.75;100.00;99704.13;5022021;28;20038;-68
2022/05/18 04:08:15;;;;;;;8.02;5.53;;;;;;;18.64;100.00;99644.75;5020048;28;20029;-68
2022/05/18 04:10:41;;;;;;;6.32;5.30;;;;;;;18.99;100.00;99696.53;5019778;28;20030;-68
2022/05/18 04:13:11;;;;;;;6.65;5.78;;;;;;;18.99;100.00;99681.06;5018748;28;20052;-68
2022/05/18 04:15:37;;;;;;;9.23;6.93;;;;;;;18.67;100.00;99672.91;5020672;28;20142;-68
2022/05/18 04:18:02;;;;;;;9.45;6.80;;;;;;;18.86;100.00;99709.38;5018314;28;20026;-68
2022/05/18 04:20:28;;;;;;;7.28;6.10;;;;;;;19.08;100.00;99720.84;5028630;28;20126;-68
2022/05/18 04:22:54;;;;;;;11.38;6.70;;;;;;;18.77;100.00;99710.00;5029491;28;20120;-67
2022/05/18 04:25:23;;;;;;;10.02;7.15;;;;;;;18.85;100.00;99723.22;5029149;28;20234;-66
2022/05/18 04:27:48;;;;;;;8.40;6.38;;;;;;;18.59;100.00;99677.72;5030733;28;20030;-66
2022/05/18 04:30:18;;;;;;;7.10;6.40;;;;;;;18.46;100.00;99666.56;5029390;28;20475;-67
2022/05/18 04:32:45;;;;;;;9.18;6.78;;;;;;;19.23;100.00;99723.22;5029625;28;20099;-67
2022/05/18 04:35:13;;;;;;;8.77;6.85;;;;;;;19.59;100.00;99732.81;5029319;28;20029;-67
2022/05/18 04:37:38;;;;;;;9.55;6.05;;;;;;;19.89;100.00;99721.19;5029783;28;20045;-66
2022/05/18 04:40:06;;;;;;;7.88;6.50;;;;;;;19.76;100.00;99680.88;5030379;28;20022;-67
2022/05/18 04:42:31;;;;;;;11.77;7.20;;;;;;;20.34;100.00;99730.03;5029830;28;20041;-66
2022/05/18 04:44:57;;;;;;;10.32;7.78;;;;;;;19.94;100.00;99695.06;5025351;28;20041;-66
2022/05/18 04:47:24;;;;;;;10.55;7.85;;;;;;;20.29;100.00;99690.81;5020517;28;20048;-66
2022/05/18 04:49:50;;;;;;;6.97;5.03;;;;;;;20.59;100.00;99737.66;5021350;28;20430;-66
2022/05/18 04:52:17;;;;;;;10.18;7.68;;;;;;;19.77;100.00;99698.81;5019816;28;20120;-67
2022/05/18 04:54:43;;;;;;;11.27;7.47;;;;;;;20.38;100.00;99720.31;5018598;28;20038;-67
2022/05/18 04:57:08;;;;;;;6.78;4.80;;;;;;;20.73;100.00;99742.66;5020169;28;20027;-66
2022/05/18 04:59:34;;;;;;;4.50;4.00;;;;;;;20.79;100.00;99670.75;5019138;28;20034;-67
2022/05/18 05:01:59;;;;;;;4.50;2.78;;;;;;;21.44;100.00;99695.88;5022982;28;20057;-67
2022/05/18 05:04:25;;;;;;;4.82;2.10;;;;;;;21.88;100.00;99752.00;5029616;28;20037;-67
2022/05/18 05:06:51;;;;;;;5.65;2.13;;;;;;;22.09;100.00;99736.50;5029197;28;20063;-67
2022/05/18 05:09:16;;;;;;;3.47;2.05;;;;;;;21.31;100.00;99658.16;5029673;28;20033;-67
2022/05/18 05:11:42;;;;;;;4.85;2.05;;;;;;;21.70;100.00;99670.56;5028947;28;20069;-67
2022/05/18 05:14:08;;;;;;;4.40;1.88;;;;;;;22.36;100.00;99750.69;5028853;28;20029;-66
2022/05/18 05:16:34;;;;;;;2.67;1.58;;;;;;;21.85;100.00;99705.63;5029040;28;20033;-67
2022/05/18 05:19:00;;;;;;;2.22;1.55;;;;;;;22.22;100.00;99739.78;5030335;28;20111;-67
2022/05/18 05:21:25;;;;;;;3.90;1.77;;;;;;;22.16;100.00;99671.19;5030050;28;20033;-67
2022/05/18 05:23:51;;;;;;;3.13;1.70;;;;;;;22.69;100.00;99730.78;5030332;28;20416;-67
2022/05/18 05:26:16;;;;;;;1.67;1.27;;;;;;;22.27;100.00;99660.75;5029035;28;20029;-67
2022/05/18 05:28:42;;;;;;;3.15;1.50;;;;;;;22.54;100.00;99698.34;5029997;28;20102;-67
2022/05/18 05:31:10;;;;;;;1.80;1.40;;;;;;;22.61;100.00;99712.44;5030177;28;20040;-67
2022/05/18 05:33:37;;;;;;;3.28;1.73;;;;;;;22.71;100.00;99679.66;5028204;28;20033;-67
2022/05/18 05:36:03;;;;;;;4.70;1.50;;;;;;;22.86;100.00;99740.59;5012310;28;20542;-67
2022/05/18 05:38:29;;;;;;;5.07;1.30;;;;;;;22.82;100.00;99705.53;5009178;28;20168;-67
2022/05/18 05:40:55;;;;;;;2.88;1.42;;;;;;;22.42;100.00;99700.16;5010397;28;20124;-67
2022/05/18 05:43:21;;;;;;;3.65;1.50;;;;;;;23.05;100.00;99749.34;5016758;28;20187;-67
2022/05/18 05:45:58;;;;;;;3.47;1.73;;;;;;;23.16;100.00;99743.25;5029981;28;20069;-67
2022/05/18 05:48:24;;;;;;;3.90;1.85;;;;;;;23.22;100.00;99740.97;5025756;28;20116;-68
2022/05/18 05:50:50;;;;;;;4.20;1.70;;;;;;;22.81;100.00;99686.53;5028159;28;20025;-70
2022/05/18 05:53:15;;;;;;;5.90;1.52;;;;;;;23.18;100.00;99746.53;5029808;28;20052;-67
2022/05/18 05:55:41;;;;;;;2.13;1.83;;;;;;;23.21;100.00;99762.66;5029872;28;20124;-68
2022/05/18 05:58:06;;;;;;;5.70;1.83;;;;;;;23.30;100.00;99763.69;5031495;28;20029;-67
2022/05/18 06:00:31;;;;;;;4.40;1.50;;;;;;;23.18;100.00;99715.41;5032897;28;20391;-70
2022/05/18 06:02:57;;;;;;;1.92;1.70;;;;;;;23.34;100.00;99705.41;5033332;28;20059;-66
2022/05/18 06:05:22;;;;;;;2.10;1.63;;;;;;;23.77;100.00;99747.50;5033158;28;20025;-67
2022/05/18 06:07:48;;;;;;;2.08;1.88;;;;;;;23.48;100.00;99764.75;5033542;28;20033;-69
2022/05/18 06:10:14;;;;;;;2.88;2.20;;;;;;;23.47;100.00;99710.38;5033251;28;20029;-67
2022/05/18 06:12:39;;;;;;;3.15;2.13;;;;;;;23.90;100.00;99747.28;5033380;28;20037;-69
2022/05/18 06:15:06;;;;;;;3.38;2.22;;;;;;;23.54;99.21;99685.53;5033189;28;20468;-69
2022/05/18 06:17:32;;;;;;;2.97;2.13;;;;;;;23.92;100.00;99728.03;5033049;28;20033;-69
2022/05/18 06:19:58;;;;;;;3.35;2.10;;;;;;;24.41;98.52;99715.91;5030960;28;20041;-70
2022/05/18 06:22:25;;;;;;;2.60;2.10;;;;;;;24.88;95.30;99754.09;5033240;28;20087;-70
2022/05/18 06:24:51;;;;;;;4.07;2.50;;;;;;;24.65;96.23;99763.13;5033038;28;20116;-70
2022/05/18 06:27:17;;;;;;;5.13;2.55;;;;;;;24.75;95.48;99735.38;5033094;28;20543;-70
2022/05/18 06:29:44;;;;;;;6.40;2.88;;;;;;;24.40;98.95;99784.47;5026963;28;20041;-70
2022/05/18 06:32:09;;;;;;;4.05;3.30;;;;;;;23.96;100.00;99775.31;5032730;28;20041;-71
2022/05/18 06:34:35;;;;;;;4.25;3.58;;;;;;;24.61;100.00;99788.59;5032859;28;20040;-70
2022/05/18 06:37:03;;;;;;;4.57;4.15;;;;;;;23.70;100.00;99732.59;5031745;28;20029;-69
2022/05/18 06:39:29;;;;;;;6.47;4.32;;;;;;;23.26;100.00;99736.34;5031427;28;20034;-70
2022/05/18 06:41:54;;;;;;;6.55;4.60;;;;;;;23.52;100.00;99742.78;5032119;28;20198;-70
2022/05/18 06:44:20;;;;;;;6.88;5.22;;;;;;;23.87;100.00;99782.13;5032508;28;20034;-70
2022/05/18 06:46:47;;;;;;;6.00;5.05;;;;;;;24.22;100.00;99793.88;5032553;28;20144;-70
2022/05/18 06:49:13;;;;;;;5.85;4.85;;;;;;;23.62;100.00;99746.25;5032500;28;20494;-70
2022/05/18 06:51:41;;;;;;;5.47;4.97;;;;;;;23.76;100.00;99742.47;5032626;28;20044;-70
2022/05/18 06:54:08;;;;;;;7.38;5.43;;;;;;;24.19;100.00;99796.72;5031418;28;20030;-70
2022/05/18 06:56:37;;;;;;;7.13;4.93;;;;;;;23.73;100.00;99779.88;5032613;28;20428;-70
2022/05/18 06:59:04;;;;;;;9.32;5.28;;;;;;;23.77;100.00;99750.09;5030954;28;20029;-70
2022/05/18 07:01:30;;;;;;;10.13;5.30;;;;;;;23.77;100.00;99802.03;5032149;28;20484;-71
2022/05/18 07:03:56;;;;;;;5.07;4.63;;;;;;;23.04;100.00;99755.47;5030958;28;20523;-69
2022/05/18 07:06:24;;;;;;;6.28;4.90;;;;;;;23.35;100.00;99765.94;5031270;28;20506;-69
2022/05/18 07:08:51;;;;;;;5.13;4.63;;;;;;;23.67;100.00;99746.66;5016879;28;20476;-69
2022/05/18 07:11:18;;;;;;;5.18;4.43;;;;;;;23.70;100.00;99776.75;5011164;28;20030;-69
2022/05/18 07:13:44;;;;;;;6.15;4.40;;;;;;;23.13;100.00;99787.63;5012341;28;20034;-69
2022/05/18 07:16:09;;;;;;;5.93;4.50;;;;;;;22.96;100.00;99752.69;5010729;28;20742;-69
2022/05/18 07:18:35;;;;;;;5.25;4.03;;;;;;;22.93;100.00;99741.75;5027411;28;20030;-68
2022/05/18 07:21:03;;;;;;;4.50;4.10;;;;;;;23.23;100.00;99820.44;5012203;28;20033;-69
2022/05/18 07:23:29;;;;;;;6.55;4.65;;;;;;;24.06;100.00;99817.78;5012165;28;20484;-68
2022/05/18 07:25:56;;;;;;;9.27;4.47;;;;;;;23.21;100.00;99808.56;5012370;28;20038;-68
2022/05/18 07:28:23;;;;;;;6.40;4.38;;;;;;;22.87;100.00;99797.53;5012054;28;20029;-68
2022/05/18 07:30:50;;;;;;;6.90;4.18;;;;;;;23.33;100.00;99798.97;5026939;28;20056;-68
2022/05/18 07:33:16;;;;;;;6.13;4.47;;;;;;;23.08;100.00;99797.53;5020736;28;20026;-68
2022/05/18 07:35:43;;;;;;;6.22;4.53;;;;;;;24.02;100.00;99837.16;5027676;28;20033;-69
2022/05/18 07:38:09;;;;;;;7.63;4.20;;;;;;;23.84;100.00;99792.78;5027005;28;20041;-68
2022/05/18 07:40:34;;;;;;;4.80;4.40;;;;;;;23.81;100.00;99844.97;5028328;28;20175;-68
2022/05/18 07:43:01;;;;;;;5.93;4.45;;;;;;;23.46;100.00;99834.16;5030185;28;20034;-68
2022/05/18 07:45:28;;;;;;;7.20;4.60;;;;;;;23.87;100.00;99849.66;5031273;28;20175;-68
2022/05/18 07:47:53;;;;;;;5.47;4.07;;;;;;;23.15;100.00;99781.38;5031795;28;20026;-68
2022/05/18 07:50:23;;;;;;;6.57;4.57;;;;;;;23.52;100.00;99807.69;5030198;28;20078;-68
2022/05/18 07:52:50;;;;;;;4.75;4.30;;;;;;;23.51;100.00;99859.72;5031351;28;20147;-68
2022/05/18 07:55:15;;;;;;;7.55;4.20;;;;;;;23.01;100.00;99853.47;5031178;28;20407;-68
2022/05/18 07:57:42;;;;;;;5.60;4.28;;;;;;;23.58;100.00;99856.50;5031371;28;20078;-69
2022/05/18 08:00:09;;;;;;;5.00;3.83;;;;;;;23.00;100.00;99865.59;5031222;28;20126;-69
2022/05/18 08:02:35;;;;;;;4.53;4.13;;;;;;;22.85;100.00;99868.63;5030032;28;20065;-68
2022/05/18 08:05:00;;;;;;;5.07;4.40;;;;;;;22.95;100.00;99853.97;5031235;28;20026;-68
2022/05/18 08:07:26;;;;;;;7.18;4.13;;;;;;;22.77;100.00;99829.50;5029661;28;20451;-69
2022/05/18 08:15:21;;;;;;;6.03;3.60;;;;;;;22.68;100.00;99853.59;5030926;28;20072;-68
2022/05/18 08:17:47;;;;;;;4.50;3.30;;;;;;;22.60;100.00;99858.56;5030796;28;20473;-68
2022/05/18 08:20:16;;;;;;;5.28;3.35;;;;;;;22.79;100.00;99858.75;5030204;28;20420;-69
2022/05/18 08:22:43;;;;;;;5.13;3.35;;;;;;;22.50;100.00;99796.25;5029480;28;20137;-69
2022/05/18 08:25:09;;;;;;;5.05;3.30;;;;;;;22.10;100.00;99792.56;5030923;28;20040;-69
2022/05/18 08:27:40;;;;;;;3.60;2.95;;;;;;;22.48;100.00;99865.53;5023800;28;20522;-68
2022/05/18 08:30:07;;;;;;;4.40;2.67;;;;;;;22.27;100.00;99857.66;5025264;28;20037;-67
2022/05/18 08:32:32;;;;;;;4.18;3.00;;;;;;;22.59;100.00;99856.91;5018214;28;20041;-67
2022/05/18 08:34:58;;;;;;;4.25;3.28;;;;;;;22.05;100.00;99813.63;5010934;28;20037;-67
2022/05/18 08:37:23;;;;;;;4.82;3.10;;;;;;;21.82;100.00;99858.59;5010767;28;20026;-69
2022/05/18 08:39:51;;;;;;;6.15;3.40;;;;;;;21.59;100.00;99825.81;5026653;28;20725;-69
2022/05/18 08:42:20;;;;;;;3.92;3.50;;;;;;;21.28;100.00;99822.16;5030611;28;20103;-69
2022/05/18 08:44:46;;;;;;;3.60;3.30;;;;;;;21.26;100.00;99829.19;5029127;28;20396;-68
2022/05/18 08:47:41;;;;;;;3.70;3.40;;;;;;;21.47;100.00;99894.84;5030675;28;20022;-68
2022/05/18 08:50:14;;;;;;;4.70;3.75;;;;;;;21.30;100.00;99874.59;5028768;28;20500;-68
2022/05/18 08:53:31;;;;;;;10.27;3.80;;;;;;;21.40;100.00;99903.19;5030747;28;20056;-68
2022/05/18 08:56:03;;;;;;;4.60;4.05;;;;;;;21.33;100.00;99904.59;4988987;28;20038;-68
2022/05/18 08:58:29;;;;;;;6.90;3.40;;;;;;;21.54;100.00;99913.34;5027907;28;20041;-69
2022/05/18 09:01:01;;;;;;;6.45;3.63;;;;;;;21.15;100.00;99919.69;5030747;28;20040;-69
2022/05/18 09:03:38;;;;;;;5.28;3.40;;;;;;;21.42;100.00;99932.34;5029097;28;20041;-68
2022/05/18 09:06:29;;;;;;;4.05;2.45;;;;;;;20.50;100.00;99910.59;5029513;28;20488;-69
2022/05/18 09:11:48;;;;;;;6.03;1.27;;;;;;;19.38;100.00;99964.59;5027953;28;20075;-69
2022/05/18 09:14:17;;;;;;;2.35;0.80;;;;;;;18.86;100.00;99967.03;5029144;28;20025;-69
2022/05/18 09:16:56;;;;;;;2.30;0.60;;;;;;;19.16;100.00;99948.81;5029997;28;20041;-68
2022/05/18 09:19:54;;;;;;;3.95;0.85;;;;;;;18.75;100.00;99966.03;5029480;28;20037;-69
2022/05/18 09:22:52;;;;;;;2.17;0.60;;;;;;;18.48;100.00;99909.31;5020032;28;20136;-69
2022/05/18 09:25:26;;;;;;;2.95;0.40;;;;;;;18.61;100.00;99974.63;5029233;28;20036;-69
2022/05/18 09:27:53;;;;;;;2.28;0.50;;;;;;;18.56;100.00;99978.41;5029074;28;20034;-68
2022/05/18 09:30:22;;;;;;;4.10;0.80;;;;;;;18.17;100.00;99987.53;5029105;28;20031;-68
2022/05/18 09:33:27;;;;;;;1.73;0.90;;;;;;;17.96;100.00;99990.53;5033547;28;20541;-68
2022/05/18 09:36:21;;;;;;;4.22;1.25;;;;;;;17.66;100.00;100000.00;5032844;28;20488;-68
2022/05/18 09:38:56;;;;;;;4.43;0.98;;;;;;;17.80;100.00;99998.31;5016057;28;20037;-68
2022/05/18 09:41:29;;;;;;;5.45;1.15;;;;;;;17.77;100.00;99995.06;5031934;28;20415;-69
2022/05/18 09:44:01;;;;;;;3.22;0.70;;;;;;;17.37;100.00;100011.91;5022654;28;20040;-68
2022/05/18 09:46:30;;;;;;;3.85;0.60;;;;;;;16.89;100.00;99915.22;5013739;28;20474;-67
2022/05/18 09:49:34;;;;;;;2.30;0.73;;;;;;;17.46;100.00;100011.38;5024189;28;20116;-68
2022/05/18 09:52:03;;;;;;;4.72;0.85;;;;;;;17.08;100.00;99964.66;5012573;28;20523;-68
2022/05/18 09:54:30;;;;;;;1.38;0.50;;;;;;;16.30;100.00;99920.94;5013393;28;20119;-69
2022/05/18 09:57:01;;;;;;;3.70;0.60;;;;;;;16.21;100.00;99923.16;5013925;28;20030;-68
2022/05/18 09:59:35;;;;;;;1.13;0.57;;;;;;;16.38;100.00;99926.50;5022729;28;20083;-68
2022/05/18 10:07:46;;;;;;;2.30;0.35;;;;;;;16.16;100.00;100026.00;5033382;28;20095;-68
2022/05/18 10:10:16;;;;;;;3.80;0.50;;;;;;;16.17;100.00;100003.75;5033327;28;20018;-68
2022/05/18 10:12:58;;;;;;;2.25;0.60;;;;;;;16.31;100.00;100060.31;5033253;28;20032;-68
2022/05/18 10:15:45;;;;;;;1.83;0.70;;;;;;;15.96;100.00;100079.19;5028876;28;20393;-68
2022/05/18 10:18:23;;;;;;;0.73;0.30;;;;;;;16.11;100.00;100083.56;5013314;28;20034;-68
2022/05/18 10:21:16;;;;;;;2.70;0.30;;;;;;;15.90;100.00;100084.63;5012104;28;20041;-68
2022/05/18 10:23:50;;;;;;;2.95;0.50;;;;;;;16.03;100.00;100083.94;5013645;28;20037;-68
2022/05/18 10:26:40;;;;;;;1.45;0.47;;;;;;;15.51;100.00;100038.63;5013268;28;20021;-68
2022/05/18 10:29:11;;;;;;;1.75;0.50;;;;;;;15.80;100.00;100091.91;5013547;28;20025;-68
2022/05/18 10:31:43;;;;;;;1.73;0.60;;;;;;;16.25;100.00;100078.59;5011508;28;20045;-67
2022/05/18 10:34:14;;;;;;;;;;;;;;;15.96;100.00;100086.88;5013342;28;20042;-67
2022/05/18 10:36:43;;;;;;;2.57;0.60;;;;;;;15.78;100.00;100074.94;5011885;28;19983;-67
2022/05/18 10:39:08;;;;;;;1.23;0.40;;;;;;;15.17;100.00;100105.09;5011725;28;20280;-68
2022/05/18 10:41:43;;;;;;;2.58;0.40;;;;;;;15.51;100.00;100059.94;5012833;28;20034;-67
2022/05/18 10:44:18;;;;;;;1.45;0.50;;;;;;;15.65;100.00;100117.44;5012125;28;20028;-67
2022/05/18 10:46:50;;;;;;;1.98;0.32;;;;;;;15.84;100.00;100106.25;5012554;28;20125;-67
2022/05/18 10:49:33;;;;;;;3.42;1.00;;;;;;;15.44;100.00;100114.97;5012813;28;20029;-67
2022/05/18 10:52:29;;;;;;;3.63;0.73;;;;;;;15.84;100.00;100123.38;5012775;28;20049;-68
2022/05/18 10:54:58;;;;;;;2.92;0.60;;;;;;;15.86;100.00;100147.19;5008010;28;20088;-69
2022/05/18 10:57:34;;;;;;;0.85;0.50;;;;;;;15.83;100.00;100163.56;5011101;28;20030;-68
2022/05/18 11:00:10;;;;;;;1.92;0.30;;;;;;;15.48;100.00;100170.28;5027659;28;20036;-68
2022/05/18 11:03:02;;;;;;;2.13;0.40;;;;;;;15.13;100.00;100178.66;5027614;28;20049;-68
2022/05/18 11:05:28;;;;;;;3.22;1.00;;;;;;;15.19;100.00;100172.44;5020804;28;20125;-68
2022/05/18 11:07:54;;;;;;;4.68;1.23;;;;;;;15.20;100.00;100171.53;5012359;28;20116;-68
2022/05/18 11:10:20;;;;;;;3.10;1.23;;;;;;;13.65;100.00;100090.13;5012532;28;20022;-68
2022/05/18 11:13:10;;;;;;;4.28;1.55;;;;;;;14.08;100.00;100217.13;5012392;28;20049;-68
2022/05/18 11:15:54;;;;;;;2.70;1.30;;;;;;;13.79;100.00;100220.78;5027482;28;20029;-68
2022/05/18 11:18:44;;;;;;;4.47;1.60;;;;;;;13.53;100.00;100139.13;5012399;28;20030;-68
2022/05/18 11:21:46;;;;;;;4.95;1.70;;;;;;;14.09;100.00;100235.84;5012123;28;20492;-68
2022/05/18 11:24:20;;;;;;;4.28;1.80;;;;;;;13.19;100.00;100265.53;5011972;28;20397;-69
2022/05/18 11:26:45;;;;;;;4.20;1.80;;;;;;;13.82;100.00;100250.50;5012043;28;20447;-68
2022/05/18 11:29:19;;;;;;;3.97;1.50;;;;;;;13.24;100.00;100266.22;5012390;28;20036;-68
2022/05/18 11:32:02;;;;;;;3.85;1.80;;;;;;;13.70;100.00;100256.91;5011863;28;20443;-67
2022/05/18 11:34:43;;;;;;;6.40;2.00;;;;;;;13.94;100.00;100244.94;5010845;28;20088;-69
2022/05/18 11:37:35;;;;;;;2.38;1.70;;;;;;;13.33;100.00;100281.22;5012024;28;20026;-68
2022/05/18 11:40:22;;;;;;;2.75;1.70;;;;;;;12.97;100.00;100290.91;5011962;28;20033;-67
2022/05/18 11:43:29;;;;;;;5.28;1.85;;;;;;;13.15;100.00;100303.13;5011693;28;20030;-68
2022/05/18 11:46:31;;;;;;;4.05;1.58;;;;;;;13.62;100.00;100314.25;5012044;28;20116;-67
2022/05/18 11:49:04;;;;;;;3.45;1.98;;;;;;;12.98;100.00;100295.13;5011615;28;20611;-69
2022/05/18 11:51:39;;;;;;;4.15;1.77;;;;;;;12.80;100.00;100311.03;5011308;28;20029;-68
2022/05/18 11:54:33;;;;;;;3.22;1.83;;;;;;;13.23;100.00;100308.78;5011840;28;20117;-68
2022/05/18 11:57:42;;;;;;;6.05;2.25;;;;;;;13.28;100.00;100337.56;5011319;28;20045;-68
2022/05/18 12:00:46;;;;;;;5.22;2.30;;;;;;;14.11;100.00;100336.31;5011615;28;20033;-68